Aeroporto :
LOGIN :

Iscrizione | Disclaimer

   EN    FR    IT 

 










Sommario :    VFR   VFR Marginale   IFR   IFR Intensivo   IFR Molto Intensivo
Visibilità : 
Base nubi : 
>= 8 km
>= 3000ft
5 / 8 km
1000 / 3000 ft
1500m / 5 km
500 / 1000 ft
800 / 1500m
200 / 500 ft
< 800m
< 200 ft
Simboli :   Temporali  Nebbia  Neve Forte  Precipitazioni Forti  Vento > 20 kt
SIGMETs :   Varie  Temporali  Ghiacco  Turbolenza  Onda orograficha  Ceneri Vulcaniche






- Altitudine del aeroporto : 141 ft
- Codice IATA : TGD


LYPG - Podgorica - Montenegro

ULTIMO METAR :
  • 240900Z 14010KT 110V190 9999 FEW033TCU SCT040 17/07 Q1009 NOSIG

METARs OBSOLETI :
  • 240830Z 14011KT 110V170 9999 FEW030TCU SCT040 16/07 Q1009 NOSIG
  • 240800Z 13011KT 9999 FEW030TCU SCT040 16/08 Q1009 NOSIG
  • 240730Z 13009KT 100V170 9999 SCT027 15/09 Q1009 NOSIG
  • 240700Z 12008KT 9999 SCT027 SCT070 15/09 Q1008 NOSIG
  • 240630Z 13008KT 100V160 9999 FEW013 SCT027 14/11 Q1008 NOSIG
  • 240600Z 00000KT 9999 FEW013 SCT027 12/11 Q1008 NOSIG
  • 240530Z 12003KT 8000 FEW013 SCT027 11/10 Q1008 NOSIG
  • 240500Z 12003KT 6000 FEW013 SCT027 10/10 Q1008 NOSIG

TAF TAF LYPG
Valido dal 24 a 06 ore il 25 a 06 ore UTC


240500Z 2406/2506 14005KT 9999 SCT033 TX18/2413Z TN09/2504Z
PROB30
TEMPO 2410/2415 20010KT SHRA FEW030TCU SCT033
PROB40
TEMPO 2421/2501 4000 RA



MetMap, La meteo Aeronautica in un colpo d'occhio ! - Copyright ORBIFLY Dicembre 2007 - Disclaimer

ORBIFLY MET'MAP TEAM :

Programmazione e sviluppo : Alexandra Zaïnal
Concezione : Baudouin d'Aumeries
Supporto tecnico e logistico : Manuel Goepfert
Aiuto : Marc-Olivier Méhu
Aiuto per la traduzione : Arnaldo La Scala




FONTI E CREDITI :

   NOAA